sensor_id;sensor_type;location;lat;lon;timestamp;P1;durP1;ratioP1;P2;durP2;ratioP2
21593;SDS011;10959;51.328;7.322;2022-12-10T00:01:56;44.90;;;30.70;;
21593;SDS011;10959;51.328;7.322;2022-12-10T00:04:22;43.53;;;29.67;;
21593;SDS011;10959;51.328;7.322;2022-12-10T00:06:48;40.87;;;29.10;;
21593;SDS011;10959;51.328;7.322;2022-12-10T00:09:15;46.03;;;30.40;;
21593;SDS011;10959;51.328;7.322;2022-12-10T00:11:43;41.93;;;29.33;;
21593;SDS011;10959;51.328;7.322;2022-12-10T00:14:10;42.87;;;29.10;;
21593;SDS011;10959;51.328;7.322;2022-12-10T00:16:39;45.80;;;29.67;;
21593;SDS011;10959;51.328;7.322;2022-12-10T00:19:06;42.07;;;28.90;;
21593;SDS011;10959;51.328;7.322;2022-12-10T00:21:33;47.13;;;29.73;;
21593;SDS011;10959;51.328;7.322;2022-12-10T00:24:03;45.13;;;28.57;;
21593;SDS011;10959;51.328;7.322;2022-12-10T00:26:31;41.23;;;27.57;;
21593;SDS011;10959;51.328;7.322;2022-12-10T00:28:59;48.87;;;31.27;;
21593;SDS011;10959;51.328;7.322;2022-12-10T00:31:27;47.63;;;30.53;;
21593;SDS011;10959;51.328;7.322;2022-12-10T00:33:57;40.37;;;28.13;;
21593;SDS011;10959;51.328;7.322;2022-12-10T00:36:26;46.30;;;30.90;;
21593;SDS011;10959;51.328;7.322;2022-12-10T00:38:54;47.23;;;30.30;;
21593;SDS011;10959;51.328;7.322;2022-12-10T00:41:21;44.63;;;31.57;;
21593;SDS011;10959;51.328;7.322;2022-12-10T00:43:47;44.07;;;30.10;;
21593;SDS011;10959;51.328;7.322;2022-12-10T00:46:15;51.27;;;32.63;;
21593;SDS011;10959;51.328;7.322;2022-12-10T00:48:42;40.97;;;28.43;;
21593;SDS011;10959;51.328;7.322;2022-12-10T00:51:12;44.20;;;30.37;;
21593;SDS011;10959;51.328;7.322;2022-12-10T00:53:40;45.30;;;31.50;;
21593;SDS011;10959;51.328;7.322;2022-12-10T00:56:08;43.73;;;30.30;;
21593;SDS011;10959;51.328;7.322;2022-12-10T00:58:36;42.00;;;27.77;;
21593;SDS011;10959;51.328;7.322;2022-12-10T01:01:08;43.47;;;28.67;;
21593;SDS011;10959;51.328;7.322;2022-12-10T01:03:36;43.80;;;30.70;;
21593;SDS011;10959;51.328;7.322;2022-12-10T01:06:07;42.23;;;27.97;;
21593;SDS011;10959;51.328;7.322;2022-12-10T01:08:37;42.33;;;30.00;;
21593;SDS011;10959;51.328;7.322;2022-12-10T01:11:03;41.40;;;29.30;;
21593;SDS011;10959;51.328;7.322;2022-12-10T01:13:30;43.93;;;29.80;;
21593;SDS011;10959;51.328;7.322;2022-12-10T01:15:59;43.27;;;27.63;;
21593;SDS011;10959;51.328;7.322;2022-12-10T01:18:26;47.47;;;30.57;;
21593;SDS011;10959;51.328;7.322;2022-12-10T01:20:52;38.80;;;27.80;;
21593;SDS011;10959;51.328;7.322;2022-12-10T01:23:19;42.13;;;28.73;;
21593;SDS011;10959;51.328;7.322;2022-12-10T01:25:47;43.20;;;29.17;;
21593;SDS011;10959;51.328;7.322;2022-12-10T01:28:13;45.97;;;30.50;;
21593;SDS011;10959;51.328;7.322;2022-12-10T01:30:40;45.27;;;30.37;;
21593;SDS011;10959;51.328;7.322;2022-12-10T01:33:06;37.60;;;25.20;;
21593;SDS011;10959;51.328;7.322;2022-12-10T01:35:35;39.23;;;25.53;;
21593;SDS011;10959;51.328;7.322;2022-12-10T01:38:02;42.57;;;28.03;;
21593;SDS011;10959;51.328;7.322;2022-12-10T01:40:28;38.27;;;26.47;;
21593;SDS011;10959;51.328;7.322;2022-12-10T01:42:57;45.13;;;30.13;;
21593;SDS011;10959;51.328;7.322;2022-12-10T01:45:23;44.57;;;29.93;;
21593;SDS011;10959;51.328;7.322;2022-12-10T01:47:50;41.73;;;28.90;;
21593;SDS011;10959;51.328;7.322;2022-12-10T01:50:16;44.17;;;29.30;;
21593;SDS011;10959;51.328;7.322;2022-12-10T01:52:43;45.77;;;29.97;;
21593;SDS011;10959;51.328;7.322;2022-12-10T01:58:09;32.80;;;21.43;;
21593;SDS011;10959;51.328;7.322;2022-12-10T02:00:43;33.70;;;23.87;;
21593;SDS011;10959;51.328;7.322;2022-12-10T02:03:26;30.60;;;21.80;;
21593;SDS011;10959;51.328;7.322;2022-12-10T02:06:03;34.47;;;21.53;;
21593;SDS011;10959;51.328;7.322;2022-12-10T02:08:41;25.57;;;18.37;;
21593;SDS011;10959;51.328;7.322;2022-12-10T02:11:13;30.87;;;21.47;;
21593;SDS011;10959;51.328;7.322;2022-12-10T02:13:45;27.97;;;20.70;;
21593;SDS011;10959;51.328;7.322;2022-12-10T02:16:25;28.40;;;19.80;;
21593;SDS011;10959;51.328;7.322;2022-12-10T02:18:56;24.20;;;18.30;;
21593;SDS011;10959;51.328;7.322;2022-12-10T02:21:29;23.50;;;17.20;;
21593;SDS011;10959;51.328;7.322;2022-12-10T02:23:59;24.33;;;17.27;;
21593;SDS011;10959;51.328;7.322;2022-12-10T02:26:30;22.03;;;16.80;;
21593;SDS011;10959;51.328;7.322;2022-12-10T02:29:06;24.87;;;17.73;;
21593;SDS011;10959;51.328;7.322;2022-12-10T02:31:39;23.43;;;17.63;;
21593;SDS011;10959;51.328;7.322;2022-12-10T02:34:08;23.87;;;17.63;;
21593;SDS011;10959;51.328;7.322;2022-12-10T02:36:37;29.87;;;20.23;;
21593;SDS011;10959;51.328;7.322;2022-12-10T02:39:08;28.73;;;21.47;;
21593;SDS011;10959;51.328;7.322;2022-12-10T02:41:38;31.67;;;21.50;;
21593;SDS011;10959;51.328;7.322;2022-12-10T02:44:10;33.47;;;24.90;;
21593;SDS011;10959;51.328;7.322;2022-12-10T02:46:39;33.60;;;25.07;;
21593;SDS011;10959;51.328;7.322;2022-12-10T02:49:08;31.40;;;23.50;;
21593;SDS011;10959;51.328;7.322;2022-12-10T02:51:39;30.10;;;21.90;;
21593;SDS011;10959;51.328;7.322;2022-12-10T03:00:00;25.77;;;19.80;;
21593;SDS011;10959;51.328;7.322;2022-12-10T03:02:33;28.23;;;20.93;;
21593;SDS011;10959;51.328;7.322;2022-12-10T03:05:07;22.30;;;16.27;;
21593;SDS011;10959;51.328;7.322;2022-12-10T03:07:41;19.67;;;16.23;;
21593;SDS011;10959;51.328;7.322;2022-12-10T03:10:18;20.40;;;15.37;;
21593;SDS011;10959;51.328;7.322;2022-12-10T03:12:50;22.70;;;17.13;;
21593;SDS011;10959;51.328;7.322;2022-12-10T03:15:24;18.93;;;15.80;;
21593;SDS011;10959;51.328;7.322;2022-12-10T03:17:52;20.73;;;15.77;;
21593;SDS011;10959;51.328;7.322;2022-12-10T03:20:21;18.43;;;14.67;;
21593;SDS011;10959;51.328;7.322;2022-12-10T03:22:50;21.83;;;16.03;;
21593;SDS011;10959;51.328;7.322;2022-12-10T03:25:19;19.43;;;16.00;;
21593;SDS011;10959;51.328;7.322;2022-12-10T03:27:50;19.83;;;15.50;;
21593;SDS011;10959;51.328;7.322;2022-12-10T03:30:20;19.57;;;16.03;;
21593;SDS011;10959;51.328;7.322;2022-12-10T03:32:48;20.10;;;15.50;;
21593;SDS011;10959;51.328;7.322;2022-12-10T03:35:15;19.00;;;14.83;;
21593;SDS011;10959;51.328;7.322;2022-12-10T03:37:45;19.83;;;14.27;;
21593;SDS011;10959;51.328;7.322;2022-12-10T03:40:14;19.40;;;14.40;;
21593;SDS011;10959;51.328;7.322;2022-12-10T03:42:43;19.97;;;16.13;;
21593;SDS011;10959;51.328;7.322;2022-12-10T03:45:09;17.70;;;15.03;;
21593;SDS011;10959;51.328;7.322;2022-12-10T03:47:36;16.77;;;13.60;;
21593;SDS011;10959;51.328;7.322;2022-12-10T03:50:05;35.63;;;15.90;;
21593;SDS011;10959;51.328;7.322;2022-12-10T03:52:32;19.57;;;15.50;;
21593;SDS011;10959;51.328;7.322;2022-12-10T03:54:59;20.93;;;16.57;;
21593;SDS011;10959;51.328;7.322;2022-12-10T03:57:26;21.17;;;16.50;;
21593;SDS011;10959;51.328;7.322;2022-12-10T03:59:52;20.53;;;16.73;;
21593;SDS011;10959;51.328;7.322;2022-12-10T04:02:19;20.43;;;16.87;;
21593;SDS011;10959;51.328;7.322;2022-12-10T04:04:45;17.40;;;14.07;;
21593;SDS011;10959;51.328;7.322;2022-12-10T04:07:13;18.60;;;14.97;;
21593;SDS011;10959;51.328;7.322;2022-12-10T04:09:40;19.37;;;14.23;;
21593;SDS011;10959;51.328;7.322;2022-12-10T04:12:06;19.80;;;14.90;;
21593;SDS011;10959;51.328;7.322;2022-12-10T04:14:33;18.33;;;15.13;;
21593;SDS011;10959;51.328;7.322;2022-12-10T04:17:17;20.13;;;15.60;;
21593;SDS011;10959;51.328;7.322;2022-12-10T04:19:43;18.73;;;14.17;;
21593;SDS011;10959;51.328;7.322;2022-12-10T04:22:10;18.67;;;15.20;;
21593;SDS011;10959;51.328;7.322;2022-12-10T04:24:55;21.90;;;16.27;;
21593;SDS011;10959;51.328;7.322;2022-12-10T04:27:47;19.03;;;14.73;;
21593;SDS011;10959;51.328;7.322;2022-12-10T04:30:14;20.63;;;17.23;;
21593;SDS011;10959;51.328;7.322;2022-12-10T04:32:40;19.20;;;15.57;;
21593;SDS011;10959;51.328;7.322;2022-12-10T04:35:07;20.23;;;15.90;;
21593;SDS011;10959;51.328;7.322;2022-12-10T04:37:34;19.20;;;15.20;;
21593;SDS011;10959;51.328;7.322;2022-12-10T04:40:03;19.80;;;15.03;;
21593;SDS011;10959;51.328;7.322;2022-12-10T04:42:30;19.43;;;15.60;;
21593;SDS011;10959;51.328;7.322;2022-12-10T04:44:57;19.10;;;15.77;;
21593;SDS011;10959;51.328;7.322;2022-12-10T04:47:23;20.40;;;15.87;;
21593;SDS011;10959;51.328;7.322;2022-12-10T04:49:50;21.33;;;16.10;;
21593;SDS011;10959;51.328;7.322;2022-12-10T04:52:17;21.20;;;16.50;;
21593;SDS011;10959;51.328;7.322;2022-12-10T04:54:43;23.73;;;17.53;;
21593;SDS011;10959;51.328;7.322;2022-12-10T04:57:11;19.27;;;15.37;;
21593;SDS011;10959;51.328;7.322;2022-12-10T04:59:39;21.77;;;15.63;;
21593;SDS011;10959;51.328;7.322;2022-12-10T05:02:05;19.83;;;16.17;;
21593;SDS011;10959;51.328;7.322;2022-12-10T05:04:31;20.47;;;15.47;;
21593;SDS011;10959;51.328;7.322;2022-12-10T05:06:58;22.83;;;18.07;;
21593;SDS011;10959;51.328;7.322;2022-12-10T05:09:25;21.63;;;17.33;;
21593;SDS011;10959;51.328;7.322;2022-12-10T05:11:51;21.63;;;16.93;;
21593;SDS011;10959;51.328;7.322;2022-12-10T05:14:19;22.37;;;17.30;;
21593;SDS011;10959;51.328;7.322;2022-12-10T05:16:45;18.60;;;13.90;;
21593;SDS011;10959;51.328;7.322;2022-12-10T05:19:15;20.60;;;16.03;;
21593;SDS011;10959;51.328;7.322;2022-12-10T05:21:44;19.83;;;15.60;;
21593;SDS011;10959;51.328;7.322;2022-12-10T05:24:28;18.53;;;13.70;;
21593;SDS011;10959;51.328;7.322;2022-12-10T05:26:56;19.07;;;14.10;;
21593;SDS011;10959;51.328;7.322;2022-12-10T05:29:24;21.30;;;14.93;;
21593;SDS011;10959;51.328;7.322;2022-12-10T05:31:50;19.50;;;14.20;;
21593;SDS011;10959;51.328;7.322;2022-12-10T05:34:17;19.70;;;15.40;;
21593;SDS011;10959;51.328;7.322;2022-12-10T05:36:44;17.77;;;13.93;;
21593;SDS011;10959;51.328;7.322;2022-12-10T05:39:11;20.33;;;16.33;;
21593;SDS011;10959;51.328;7.322;2022-12-10T05:41:38;17.27;;;13.77;;
21593;SDS011;10959;51.328;7.322;2022-12-10T05:44:06;20.37;;;15.27;;
21593;SDS011;10959;51.328;7.322;2022-12-10T05:46:35;17.03;;;14.67;;
21593;SDS011;10959;51.328;7.322;2022-12-10T05:49:02;19.47;;;16.07;;
21593;SDS011;10959;51.328;7.322;2022-12-10T05:51:31;18.00;;;15.47;;
21593;SDS011;10959;51.328;7.322;2022-12-10T05:53:59;16.50;;;12.90;;
21593;SDS011;10959;51.328;7.322;2022-12-10T05:56:28;17.57;;;14.60;;
21593;SDS011;10959;51.328;7.322;2022-12-10T05:58:56;17.23;;;13.90;;
21593;SDS011;10959;51.328;7.322;2022-12-10T06:01:26;16.30;;;13.13;;
21593;SDS011;10959;51.328;7.322;2022-12-10T06:03:56;17.97;;;12.77;;
21593;SDS011;10959;51.328;7.322;2022-12-10T06:06:23;18.93;;;14.60;;
21593;SDS011;10959;51.328;7.322;2022-12-10T06:08:51;18.90;;;14.30;;
21593;SDS011;10959;51.328;7.322;2022-12-10T06:11:18;18.27;;;13.53;;
21593;SDS011;10959;51.328;7.322;2022-12-10T06:13:45;18.40;;;14.47;;
21593;SDS011;10959;51.328;7.322;2022-12-10T06:16:12;16.97;;;13.57;;
21593;SDS011;10959;51.328;7.322;2022-12-10T06:18:39;18.40;;;14.67;;
21593;SDS011;10959;51.328;7.322;2022-12-10T06:21:09;17.70;;;13.67;;
21593;SDS011;10959;51.328;7.322;2022-12-10T06:23:37;19.03;;;15.20;;
21593;SDS011;10959;51.328;7.322;2022-12-10T06:26:04;20.63;;;16.50;;
21593;SDS011;10959;51.328;7.322;2022-12-10T06:28:31;18.27;;;14.53;;
21593;SDS011;10959;51.328;7.322;2022-12-10T06:30:57;22.37;;;16.03;;
21593;SDS011;10959;51.328;7.322;2022-12-10T06:33:24;18.50;;;15.40;;
21593;SDS011;10959;51.328;7.322;2022-12-10T06:35:51;19.67;;;15.80;;
21593;SDS011;10959;51.328;7.322;2022-12-10T06:38:19;19.03;;;14.73;;
21593;SDS011;10959;51.328;7.322;2022-12-10T06:40:46;18.87;;;14.67;;
21593;SDS011;10959;51.328;7.322;2022-12-10T06:43:13;21.63;;;16.03;;
21593;SDS011;10959;51.328;7.322;2022-12-10T06:45:40;22.53;;;15.13;;
21593;SDS011;10959;51.328;7.322;2022-12-10T06:48:07;19.10;;;14.80;;
21593;SDS011;10959;51.328;7.322;2022-12-10T06:50:35;20.63;;;14.53;;
21593;SDS011;10959;51.328;7.322;2022-12-10T06:53:01;22.70;;;15.97;;
21593;SDS011;10959;51.328;7.322;2022-12-10T06:55:29;21.67;;;16.20;;
21593;SDS011;10959;51.328;7.322;2022-12-10T06:57:56;19.97;;;15.87;;
21593;SDS011;10959;51.328;7.322;2022-12-10T07:00:22;20.23;;;15.13;;
21593;SDS011;10959;51.328;7.322;2022-12-10T07:02:49;20.20;;;16.03;;
21593;SDS011;10959;51.328;7.322;2022-12-10T07:05:16;18.27;;;14.67;;
21593;SDS011;10959;51.328;7.322;2022-12-10T07:07:42;20.30;;;15.77;;
21593;SDS011;10959;51.328;7.322;2022-12-10T07:10:09;18.63;;;14.90;;
21593;SDS011;10959;51.328;7.322;2022-12-10T07:12:37;20.27;;;16.23;;
21593;SDS011;10959;51.328;7.322;2022-12-10T07:15:04;19.13;;;15.70;;
21593;SDS011;10959;51.328;7.322;2022-12-10T07:17:31;18.60;;;16.20;;
21593;SDS011;10959;51.328;7.322;2022-12-10T07:19:58;20.30;;;16.63;;
21593;SDS011;10959;51.328;7.322;2022-12-10T07:22:24;18.57;;;14.93;;
21593;SDS011;10959;51.328;7.322;2022-12-10T07:24:50;21.07;;;16.27;;
21593;SDS011;10959;51.328;7.322;2022-12-10T07:27:17;21.20;;;17.23;;
21593;SDS011;10959;51.328;7.322;2022-12-10T07:29:45;21.17;;;16.03;;
21593;SDS011;10959;51.328;7.322;2022-12-10T07:32:11;22.80;;;17.77;;
21593;SDS011;10959;51.328;7.322;2022-12-10T07:34:39;19.63;;;15.30;;
21593;SDS011;10959;51.328;7.322;2022-12-10T07:37:06;21.43;;;15.53;;
21593;SDS011;10959;51.328;7.322;2022-12-10T07:39:32;23.20;;;16.33;;
21593;SDS011;10959;51.328;7.322;2022-12-10T07:41:59;23.17;;;17.93;;
21593;SDS011;10959;51.328;7.322;2022-12-10T07:44:25;22.17;;;17.07;;
21593;SDS011;10959;51.328;7.322;2022-12-10T07:46:53;20.73;;;16.87;;
21593;SDS011;10959;51.328;7.322;2022-12-10T07:49:20;23.73;;;17.93;;
21593;SDS011;10959;51.328;7.322;2022-12-10T07:51:47;23.97;;;17.87;;
21593;SDS011;10959;51.328;7.322;2022-12-10T07:54:15;21.60;;;17.27;;
21593;SDS011;10959;51.328;7.322;2022-12-10T07:56:42;22.57;;;17.43;;
21593;SDS011;10959;51.328;7.322;2022-12-10T07:59:08;23.17;;;17.57;;
21593;SDS011;10959;51.328;7.322;2022-12-10T08:01:35;24.20;;;18.87;;
21593;SDS011;10959;51.328;7.322;2022-12-10T08:04:03;24.93;;;18.40;;
21593;SDS011;10959;51.328;7.322;2022-12-10T08:06:29;24.57;;;17.70;;
21593;SDS011;10959;51.328;7.322;2022-12-10T08:08:57;22.90;;;18.00;;
21593;SDS011;10959;51.328;7.322;2022-12-10T08:11:24;23.27;;;18.20;;
21593;SDS011;10959;51.328;7.322;2022-12-10T08:13:52;24.43;;;20.00;;
21593;SDS011;10959;51.328;7.322;2022-12-10T08:16:19;22.70;;;18.37;;
21593;SDS011;10959;51.328;7.322;2022-12-10T08:18:47;24.97;;;20.07;;
21593;SDS011;10959;51.328;7.322;2022-12-10T08:21:16;23.03;;;18.83;;
21593;SDS011;10959;51.328;7.322;2022-12-10T08:23:44;24.77;;;20.30;;
21593;SDS011;10959;51.328;7.322;2022-12-10T08:26:13;28.73;;;20.77;;
21593;SDS011;10959;51.328;7.322;2022-12-10T08:28:41;24.00;;;19.67;;
21593;SDS011;10959;51.328;7.322;2022-12-10T08:31:08;28.93;;;21.53;;
21593;SDS011;10959;51.328;7.322;2022-12-10T08:33:36;31.07;;;23.37;;
21593;SDS011;10959;51.328;7.322;2022-12-10T08:36:04;27.57;;;21.70;;
21593;SDS011;10959;51.328;7.322;2022-12-10T08:38:34;29.40;;;22.33;;
21593;SDS011;10959;51.328;7.322;2022-12-10T08:41:04;37.13;;;27.03;;
21593;SDS011;10959;51.328;7.322;2022-12-10T08:43:32;31.17;;;24.30;;
21593;SDS011;10959;51.328;7.322;2022-12-10T08:45:58;28.40;;;22.80;;
21593;SDS011;10959;51.328;7.322;2022-12-10T08:48:25;29.47;;;22.33;;
21593;SDS011;10959;51.328;7.322;2022-12-10T08:50:51;26.53;;;20.87;;
21593;SDS011;10959;51.328;7.322;2022-12-10T08:53:18;27.60;;;20.93;;
21593;SDS011;10959;51.328;7.322;2022-12-10T08:55:45;24.80;;;20.43;;
21593;SDS011;10959;51.328;7.322;2022-12-10T08:58:15;27.77;;;19.97;;
21593;SDS011;10959;51.328;7.322;2022-12-10T09:00:42;25.17;;;19.60;;
21593;SDS011;10959;51.328;7.322;2022-12-10T09:03:09;27.37;;;20.03;;
21593;SDS011;10959;51.328;7.322;2022-12-10T09:05:35;23.80;;;19.70;;
21593;SDS011;10959;51.328;7.322;2022-12-10T09:08:02;24.37;;;20.33;;
21593;SDS011;10959;51.328;7.322;2022-12-10T09:10:29;25.13;;;19.60;;
21593;SDS011;10959;51.328;7.322;2022-12-10T09:12:57;23.70;;;19.70;;
21593;SDS011;10959;51.328;7.322;2022-12-10T09:15:23;23.97;;;19.57;;
21593;SDS011;10959;51.328;7.322;2022-12-10T09:17:50;23.33;;;19.63;;
21593;SDS011;10959;51.328;7.322;2022-12-10T09:20:16;26.43;;;20.20;;
21593;SDS011;10959;51.328;7.322;2022-12-10T09:22:43;24.77;;;19.87;;
21593;SDS011;10959;51.328;7.322;2022-12-10T09:25:09;23.50;;;19.47;;
21593;SDS011;10959;51.328;7.322;2022-12-10T09:27:36;23.87;;;19.13;;
21593;SDS011;10959;51.328;7.322;2022-12-10T09:30:04;23.67;;;18.70;;
21593;SDS011;10959;51.328;7.322;2022-12-10T09:32:32;23.07;;;17.83;;
21593;SDS011;10959;51.328;7.322;2022-12-10T09:34:58;25.93;;;19.53;;
21593;SDS011;10959;51.328;7.322;2022-12-10T09:37:26;26.60;;;19.13;;
21593;SDS011;10959;51.328;7.322;2022-12-10T09:39:53;26.77;;;20.70;;
21593;SDS011;10959;51.328;7.322;2022-12-10T09:42:22;25.67;;;20.07;;
21593;SDS011;10959;51.328;7.322;2022-12-10T09:45:02;25.13;;;20.07;;
21593;SDS011;10959;51.328;7.322;2022-12-10T09:47:36;25.33;;;20.40;;
21593;SDS011;10959;51.328;7.322;2022-12-10T09:50:12;24.30;;;19.30;;
21593;SDS011;10959;51.328;7.322;2022-12-10T09:52:45;24.53;;;18.87;;
21593;SDS011;10959;51.328;7.322;2022-12-10T09:55:15;26.30;;;20.77;;
21593;SDS011;10959;51.328;7.322;2022-12-10T09:57:44;25.33;;;20.53;;
21593;SDS011;10959;51.328;7.322;2022-12-10T10:00:19;31.77;;;22.87;;
21593;SDS011;10959;51.328;7.322;2022-12-10T10:02:48;31.97;;;23.77;;
21593;SDS011;10959;51.328;7.322;2022-12-10T10:05:18;34.60;;;24.77;;
21593;SDS011;10959;51.328;7.322;2022-12-10T10:07:48;31.97;;;23.73;;
21593;SDS011;10959;51.328;7.322;2022-12-10T10:10:20;33.40;;;24.40;;
21593;SDS011;10959;51.328;7.322;2022-12-10T10:12:50;39.00;;;26.83;;
21593;SDS011;10959;51.328;7.322;2022-12-10T10:15:22;40.50;;;27.53;;
21593;SDS011;10959;51.328;7.322;2022-12-10T10:17:52;40.10;;;28.73;;
21593;SDS011;10959;51.328;7.322;2022-12-10T10:20:21;42.37;;;28.63;;
21593;SDS011;10959;51.328;7.322;2022-12-10T10:22:48;41.90;;;28.40;;
21593;SDS011;10959;51.328;7.322;2022-12-10T10:25:15;43.63;;;29.63;;
21593;SDS011;10959;51.328;7.322;2022-12-10T10:27:44;44.67;;;29.97;;
21593;SDS011;10959;51.328;7.322;2022-12-10T10:30:14;41.80;;;29.10;;
21593;SDS011;10959;51.328;7.322;2022-12-10T10:32:58;46.73;;;28.53;;
21593;SDS011;10959;51.328;7.322;2022-12-10T10:35:41;43.43;;;28.47;;
21593;SDS011;10959;51.328;7.322;2022-12-10T10:38:13;42.07;;;26.57;;
21593;SDS011;10959;51.328;7.322;2022-12-10T10:40:44;40.83;;;27.93;;
21593;SDS011;10959;51.328;7.322;2022-12-10T10:43:13;39.47;;;26.13;;
21593;SDS011;10959;51.328;7.322;2022-12-10T10:45:42;43.07;;;27.63;;
21593;SDS011;10959;51.328;7.322;2022-12-10T10:48:15;39.17;;;25.87;;
21593;SDS011;10959;51.328;7.322;2022-12-10T10:50:44;44.93;;;28.80;;
21593;SDS011;10959;51.328;7.322;2022-12-10T10:53:19;45.10;;;27.83;;
21593;SDS011;10959;51.328;7.322;2022-12-10T10:55:48;42.67;;;28.43;;
21593;SDS011;10959;51.328;7.322;2022-12-10T10:58:17;45.17;;;29.77;;
21593;SDS011;10959;51.328;7.322;2022-12-10T11:00:52;45.27;;;29.13;;
21593;SDS011;10959;51.328;7.322;2022-12-10T11:03:22;44.97;;;29.97;;
21593;SDS011;10959;51.328;7.322;2022-12-10T11:05:48;42.97;;;28.23;;
21593;SDS011;10959;51.328;7.322;2022-12-10T11:08:16;45.10;;;29.13;;
21593;SDS011;10959;51.328;7.322;2022-12-10T11:10:46;50.50;;;31.10;;
21593;SDS011;10959;51.328;7.322;2022-12-10T11:13:18;47.93;;;29.60;;
21593;SDS011;10959;51.328;7.322;2022-12-10T11:15:53;40.80;;;27.43;;
21593;SDS011;10959;51.328;7.322;2022-12-10T11:18:25;41.93;;;26.63;;
21593;SDS011;10959;51.328;7.322;2022-12-10T11:20:56;39.17;;;26.23;;
21593;SDS011;10959;51.328;7.322;2022-12-10T11:23:26;42.53;;;28.30;;
21593;SDS011;10959;51.328;7.322;2022-12-10T11:25:55;45.13;;;28.80;;
21593;SDS011;10959;51.328;7.322;2022-12-10T11:28:32;37.40;;;25.77;;
21593;SDS011;10959;51.328;7.322;2022-12-10T11:31:12;40.87;;;27.27;;
21593;SDS011;10959;51.328;7.322;2022-12-10T11:33:52;37.63;;;26.47;;
21593;SDS011;10959;51.328;7.322;2022-12-10T11:36:29;45.60;;;28.37;;
21593;SDS011;10959;51.328;7.322;2022-12-10T11:39:05;41.33;;;27.60;;
21593;SDS011;10959;51.328;7.322;2022-12-10T11:41:44;36.20;;;24.53;;
21593;SDS011;10959;51.328;7.322;2022-12-10T11:44:20;39.10;;;27.80;;
21593;SDS011;10959;51.328;7.322;2022-12-10T11:47:03;40.63;;;28.53;;
21593;SDS011;10959;51.328;7.322;2022-12-10T11:49:46;40.17;;;27.90;;
21593;SDS011;10959;51.328;7.322;2022-12-10T11:52:20;40.70;;;27.33;;
21593;SDS011;10959;51.328;7.322;2022-12-10T11:55:04;39.93;;;27.30;;
21593;SDS011;10959;51.328;7.322;2022-12-10T11:57:53;42.67;;;27.50;;
21593;SDS011;10959;51.328;7.322;2022-12-10T12:00:37;39.57;;;26.83;;
21593;SDS011;10959;51.328;7.322;2022-12-10T12:03:14;37.43;;;25.47;;
21593;SDS011;10959;51.328;7.322;2022-12-10T12:06:03;37.43;;;24.90;;
21593;SDS011;10959;51.328;7.322;2022-12-10T12:08:46;36.87;;;26.47;;
21593;SDS011;10959;51.328;7.322;2022-12-10T12:11:28;38.63;;;26.50;;
21593;SDS011;10959;51.328;7.322;2022-12-10T12:14:02;39.23;;;26.33;;
21593;SDS011;10959;51.328;7.322;2022-12-10T12:16:35;40.13;;;26.47;;
21593;SDS011;10959;51.328;7.322;2022-12-10T12:19:11;37.57;;;24.93;;
21593;SDS011;10959;51.328;7.322;2022-12-10T12:21:42;41.37;;;27.90;;
21593;SDS011;10959;51.328;7.322;2022-12-10T12:24:12;40.17;;;28.03;;
21593;SDS011;10959;51.328;7.322;2022-12-10T12:26:46;39.77;;;27.77;;
21593;SDS011;10959;51.328;7.322;2022-12-10T12:29:20;40.27;;;25.67;;
21593;SDS011;10959;51.328;7.322;2022-12-10T12:31:53;35.40;;;24.97;;
21593;SDS011;10959;51.328;7.322;2022-12-10T12:34:25;36.77;;;24.97;;
21593;SDS011;10959;51.328;7.322;2022-12-10T12:36:56;35.13;;;25.10;;
21593;SDS011;10959;51.328;7.322;2022-12-10T12:39:23;40.40;;;26.37;;
21593;SDS011;10959;51.328;7.322;2022-12-10T12:41:59;42.03;;;28.07;;
21593;SDS011;10959;51.328;7.322;2022-12-10T12:44:33;42.47;;;26.40;;
21593;SDS011;10959;51.328;7.322;2022-12-10T12:47:11;37.37;;;26.40;;
21593;SDS011;10959;51.328;7.322;2022-12-10T12:49:45;37.87;;;26.50;;
21593;SDS011;10959;51.328;7.322;2022-12-10T12:52:18;42.80;;;29.70;;
21593;SDS011;10959;51.328;7.322;2022-12-10T12:54:55;39.40;;;26.80;;
21593;SDS011;10959;51.328;7.322;2022-12-10T12:57:27;39.83;;;27.13;;
21593;SDS011;10959;51.328;7.322;2022-12-10T13:00:00;40.40;;;27.03;;
21593;SDS011;10959;51.328;7.322;2022-12-10T13:02:42;40.57;;;28.87;;
21593;SDS011;10959;51.328;7.322;2022-12-10T13:05:13;39.73;;;28.87;;
21593;SDS011;10959;51.328;7.322;2022-12-10T13:07:43;41.50;;;26.27;;
21593;SDS011;10959;51.328;7.322;2022-12-10T13:10:18;36.53;;;26.73;;
21593;SDS011;10959;51.328;7.322;2022-12-10T13:12:51;43.80;;;28.43;;
21593;SDS011;10959;51.328;7.322;2022-12-10T13:15:32;41.63;;;26.97;;
21593;SDS011;10959;51.328;7.322;2022-12-10T13:18:03;39.37;;;26.83;;
21593;SDS011;10959;51.328;7.322;2022-12-10T13:20:46;39.80;;;26.60;;
21593;SDS011;10959;51.328;7.322;2022-12-10T13:23:30;38.57;;;26.87;;
21593;SDS011;10959;51.328;7.322;2022-12-10T13:25:59;34.60;;;25.50;;
21593;SDS011;10959;51.328;7.322;2022-12-10T13:28:28;42.13;;;27.13;;
21593;SDS011;10959;51.328;7.322;2022-12-10T13:33:49;42.70;;;27.43;;
21593;SDS011;10959;51.328;7.322;2022-12-10T13:36:23;38.97;;;26.63;;
21593;SDS011;10959;51.328;7.322;2022-12-10T13:38:57;39.07;;;26.07;;
21593;SDS011;10959;51.328;7.322;2022-12-10T13:41:39;39.07;;;26.80;;
21593;SDS011;10959;51.328;7.322;2022-12-10T13:44:30;41.63;;;26.77;;
21593;SDS011;10959;51.328;7.322;2022-12-10T13:47:04;36.50;;;25.37;;
21593;SDS011;10959;51.328;7.322;2022-12-10T13:49:47;38.30;;;25.43;;
21593;SDS011;10959;51.328;7.322;2022-12-10T13:52:19;36.83;;;25.10;;
21593;SDS011;10959;51.328;7.322;2022-12-10T13:55:01;39.40;;;26.43;;
21593;SDS011;10959;51.328;7.322;2022-12-10T13:57:44;39.60;;;25.63;;
21593;SDS011;10959;51.328;7.322;2022-12-10T14:00:23;35.37;;;23.97;;
21593;SDS011;10959;51.328;7.322;2022-12-10T14:03:03;34.20;;;24.33;;
21593;SDS011;10959;51.328;7.322;2022-12-10T14:06:03;34.20;;;24.40;;
21593;SDS011;10959;51.328;7.322;2022-12-10T14:08:39;42.13;;;26.97;;
21593;SDS011;10959;51.328;7.322;2022-12-10T14:11:12;36.20;;;26.33;;
21593;SDS011;10959;51.328;7.322;2022-12-10T14:13:44;34.33;;;23.90;;
21593;SDS011;10959;51.328;7.322;2022-12-10T14:16:15;45.67;;;29.20;;
21593;SDS011;10959;51.328;7.322;2022-12-10T14:18:45;40.60;;;27.80;;
21593;SDS011;10959;51.328;7.322;2022-12-10T14:21:18;41.70;;;27.50;;
21593;SDS011;10959;51.328;7.322;2022-12-10T14:23:44;46.63;;;29.60;;
21593;SDS011;10959;51.328;7.322;2022-12-10T14:26:14;39.73;;;26.90;;
21593;SDS011;10959;51.328;7.322;2022-12-10T14:28:43;43.40;;;27.83;;
21593;SDS011;10959;51.328;7.322;2022-12-10T14:31:13;44.93;;;28.60;;
21593;SDS011;10959;51.328;7.322;2022-12-10T14:33:43;46.63;;;28.77;;
21593;SDS011;10959;51.328;7.322;2022-12-10T14:36:15;47.13;;;31.73;;
21593;SDS011;10959;51.328;7.322;2022-12-10T14:38:46;46.27;;;30.57;;
21593;SDS011;10959;51.328;7.322;2022-12-10T14:41:15;45.87;;;29.67;;
21593;SDS011;10959;51.328;7.322;2022-12-10T14:43:46;43.03;;;28.83;;
21593;SDS011;10959;51.328;7.322;2022-12-10T14:46:14;47.40;;;29.30;;
21593;SDS011;10959;51.328;7.322;2022-12-10T14:48:48;47.83;;;31.43;;
21593;SDS011;10959;51.328;7.322;2022-12-10T14:51:15;49.03;;;31.63;;